Time;durP1;ratioP1;P1;durP2;ratioP2;P2;SDS_P1;SDS_P2;PMS_P1;PMS_P2;Temp;Humidity;BMP_temperature;BMP_pressure;BME280_temperature;BME280_humidity;BME280_pressure;Samples;Min_cycle;Max_cycle;Signal;HPM_P1;HPM_P2
2021/10/19 00:00:59;;;;;;;;;18.25;14.50;;;;;16.69;73.81;101228.97;5056436;28;45219;-61
2021/10/19 00:03:24;;;;;;;;;17.25;14.00;;;;;16.69;73.72;101240.41;5056251;28;45378;-61
2021/10/19 00:05:50;;;;;;;;;16.00;16.00;;;;;16.70;73.79;101241.22;5055982;28;62198;-60
2021/10/19 00:08:15;;;;;;;;;21.25;14.00;;;;;16.70;73.96;101244.72;5056174;28;59340;-61
2021/10/19 00:10:40;;;;;;;;;17.50;16.00;;;;;16.71;73.66;101246.38;5055990;28;64312;-60
2021/10/19 00:13:06;;;;;;;;;12.75;12.50;;;;;16.72;74.10;101240.09;5056749;28;45376;-60
2021/10/19 00:15:31;;;;;;;;;14.25;14.00;;;;;16.72;73.98;101245.38;5056331;28;54603;-61
2021/10/19 00:17:56;;;;;;;;;16.25;14.50;;;;;16.73;73.57;101248.88;5055770;28;66322;-61
2021/10/19 00:20:22;;;;;;;;;15.75;15.00;;;;;16.73;73.76;101241.75;5055635;28;68553;-60
2021/10/19 00:22:47;;;;;;;;;16.75;15.50;;;;;16.73;73.35;101241.75;5055774;28;57507;-61
2021/10/19 00:25:15;;;;;;;;;17.25;14.75;;;;;16.75;73.31;101245.06;5054726;28;58624;-60
2021/10/19 00:27:40;;;;;;;;;14.75;14.25;;;;;16.75;73.50;101238.91;5056334;28;45520;-61
2021/10/19 00:30:07;;;;;;;;;16.25;16.25;;;;;16.76;73.48;101243.25;5055819;28;65324;-61
2021/10/19 00:32:32;;;;;;;;;14.50;14.00;;;;;16.75;73.50;101238.91;5056394;28;45304;-60
2021/10/19 00:34:57;;;;;;;;;16.75;15.25;;;;;16.74;73.44;101238.09;5055890;28;57759;-60
2021/10/19 00:37:23;;;;;;;;;16.25;15.00;;;;;16.75;73.61;101230.97;5055535;28;65994;-61
2021/10/19 00:39:48;;;;;;;;;15.00;13.50;;;;;16.75;73.63;101237.13;5055262;28;71305;-60
2021/10/19 00:42:13;;;;;;;;;14.50;13.50;;;;;16.76;73.48;101252.03;5056269;28;45563;-61
2021/10/19 00:44:39;;;;;;;;;17.50;14.75;;;;;16.75;73.52;101239.78;5055444;28;64618;-61
2021/10/19 00:47:04;;;;;;;;;17.75;16.00;;;;;16.76;73.45;101244.09;5056088;28;46233;-60
2021/10/19 00:49:30;;;;;;;;;15.00;12.75;;;;;16.77;73.72;101236.94;5055143;28;70821;-61
2021/10/19 00:51:55;;;;;;;;;16.50;15.75;;;;;16.76;73.45;101235.28;5055504;28;62922;-61
2021/10/19 00:54:22;;;;;;;;;19.25;15.00;;;;;16.76;73.53;101224.66;5054759;28;46816;-61
2021/10/19 00:56:47;;;;;;;;;19.00;16.25;;;;;16.76;73.51;101228.16;5055868;28;45386;-60
2021/10/19 00:59:13;;;;;;;;;16.25;12.75;;;;;16.76;73.41;101227.31;5055224;28;71901;-61
2021/10/19 01:01:38;;;;;;;;;19.00;15.00;;;;;16.76;73.41;101222.00;5037263;28;65584;-60
2021/10/19 01:04:04;;;;;;;;;15.75;12.75;;;;;16.77;73.71;101229.81;5056101;28;45320;-60
2021/10/19 01:06:29;;;;;;;;;15.75;14.25;;;;;16.76;73.38;101216.69;5055320;28;58847;-60
2021/10/19 01:08:54;;;;;;;;;16.00;15.25;;;;;16.77;73.50;101226.31;5054019;28;62230;-60
2021/10/19 01:11:20;;;;;;;;;15.00;14.00;;;;;16.77;73.43;101229.81;5053991;28;64114;-60
2021/10/19 01:13:45;;;;;;;;;15.00;13.00;;;;;16.77;73.61;101236.94;5057647;28;45525;-60
2021/10/19 01:16:11;;;;;;;;;16.75;15.75;;;;;16.76;73.58;101238.78;5058619;28;67674;-60
2021/10/19 01:18:37;;;;;;;;;16.50;15.00;;;;;16.79;73.30;101247.41;5059324;28;45362;-60
2021/10/19 01:21:03;;;;;;;;;14.00;12.75;;;;;16.77;73.45;101244.91;5058066;28;45346;-60
2021/10/19 01:23:28;;;;;;;;;15.25;12.50;;;;;16.78;73.37;101259.84;5059214;28;45299;-61
2021/10/19 01:25:53;;;;;;;;;15.25;13.50;;;;;16.78;73.49;101249.22;5058698;28;64268;-61
2021/10/19 01:28:19;;;;;;;;;14.00;13.50;;;;;16.80;73.18;101243.78;5059145;28;45254;-61
2021/10/19 01:30:45;;;;;;;;;22.00;18.00;;;;;16.81;73.14;101245.44;5059213;28;45317;-60
2021/10/19 01:33:11;;;;;;;;;16.50;13.50;;;;;16.81;73.29;101240.94;5059364;28;45179;-60
2021/10/19 01:35:37;;;;;;;;;15.00;14.50;;;;;16.83;73.38;101248.75;5058270;28;69101;-60
2021/10/19 01:38:04;;;;;;;;;14.50;13.75;;;;;16.82;73.26;101247.09;5059167;28;45322;-60
2021/10/19 01:40:29;;;;;;;;;15.00;14.50;;;;;16.82;73.21;101234.63;5059372;28;45352;-61
2021/10/19 01:42:54;;;;;;;;;14.50;13.50;;;;;16.83;73.16;101241.59;5059319;28;45360;-60
2021/10/19 01:45:20;;;;;;;;;11.75;10.50;;;;;16.83;73.52;101230.19;5058272;28;66023;-60
2021/10/19 01:47:45;;;;;;;;;13.00;11.50;;;;;16.85;73.07;101236.16;5057640;28;45410;-60
2021/10/19 01:50:11;;;;;;;;;13.25;12.25;;;;;16.85;73.20;101236.16;5058956;28;45499;-61
2021/10/19 01:52:37;;;;;;;;;15.50;14.00;;;;;16.85;73.24;101236.16;5058928;28;45417;-61
2021/10/19 01:55:04;;;;;;;;;14.25;12.25;;;;;16.84;73.25;101227.34;5058758;28;45297;-61
2021/10/19 01:57:29;;;;;;;;;12.00;12.00;;;;;16.84;73.24;101224.69;5058778;28;45253;-60
2021/10/19 01:59:55;;;;;;;;;14.75;14.00;;;;;16.86;73.13;101224.56;5057718;28;45391;-60
2021/10/19 02:02:20;;;;;;;;;16.75;14.00;;;;;16.86;73.06;101221.91;5058093;28;61780;-61
2021/10/19 02:04:45;;;;;;;;;14.00;13.00;;;;;16.85;72.92;101222.88;5057951;28;64679;-61
2021/10/19 02:07:11;;;;;;;;;15.75;13.00;;;;;16.86;73.03;101232.50;5058231;28;57378;-61
2021/10/19 02:09:36;;;;;;;;;14.75;13.25;;;;;16.85;73.08;101236.97;5058866;28;45318;-60
2021/10/19 02:12:02;;;;;;;;;12.75;11.50;;;;;16.86;73.10;101232.50;5057897;28;62308;-60
2021/10/19 02:14:27;;;;;;;;;13.50;12.75;;;;;16.86;72.96;101237.81;5039752;28;58476;-61
2021/10/19 02:16:52;;;;;;;;;14.25;13.50;;;;;16.86;73.03;101238.63;5058176;28;50424;-61
2021/10/19 02:19:21;;;;;;;;;13.75;12.25;;;;;16.88;73.00;101235.84;5057278;28;69386;-61
2021/10/19 02:21:47;;;;;;;;;15.00;13.25;;;;;16.87;73.01;101240.31;5056832;28;45547;-60
2021/10/19 02:24:12;;;;;;;;;18.25;13.00;;;;;16.88;72.77;101233.19;5057033;28;68964;-61
2021/10/19 02:26:37;;;;;;;;;14.25;12.25;;;;;16.88;72.97;101225.22;5057502;28;52360;-61
2021/10/19 02:29:03;;;;;;;;;14.50;13.50;;;;;16.90;72.66;101217.94;5057762;28;62235;-61
2021/10/19 02:31:28;;;;;;;;;14.00;13.50;;;;;16.88;72.76;101219.91;5057702;28;61098;-61
2021/10/19 02:33:54;;;;;;;;;11.50;11.25;;;;;16.89;72.65;101216.28;5058140;28;46000;-61
2021/10/19 02:36:21;;;;;;;;;14.25;12.00;;;;;16.88;72.66;101217.25;5056251;28;64470;-60
2021/10/19 02:38:47;;;;;;;;;14.25;13.00;;;;;16.87;72.39;101208.44;5058214;28;45314;-60
2021/10/19 02:41:12;;;;;;;;;12.75;11.50;;;;;16.89;72.56;101213.63;5058145;28;45450;-61
2021/10/19 02:43:37;;;;;;;;;12.50;12.50;;;;;16.88;72.52;101207.47;5057286;28;63053;-61
2021/10/19 02:46:03;;;;;;;;;13.50;13.00;;;;;16.88;72.64;101214.59;5057330;28;64613;-61
2021/10/19 02:48:28;;;;;;;;;14.00;12.75;;;;;16.87;72.77;101211.09;5057487;28;59081;-60
2021/10/19 02:50:53;;;;;;;;;12.50;10.50;;;;;16.87;72.60;101213.75;5057266;28;65178;-61
2021/10/19 02:53:19;;;;;;;;;12.25;11.50;;;;;16.88;72.57;101219.91;5056793;28;71364;-61
2021/10/19 02:55:44;;;;;;;;;11.50;9.75;;;;;16.86;72.47;101225.38;5056944;28;70400;-61
2021/10/19 02:58:10;;;;;;;;;12.00;12.00;;;;;16.88;72.52;101222.56;5057976;28;45485;-61
2021/10/19 03:00:35;;;;;;;;;15.00;12.50;;;;;16.88;72.38;101217.25;5057351;28;57229;-60
2021/10/19 03:03:00;;;;;;;;;13.50;10.75;;;;;16.88;72.29;101217.25;5056928;28;70017;-60
2021/10/19 03:05:26;;;;;;;;;16.25;13.00;;;;;16.88;72.19;101219.91;5055538;28;45430;-60
2021/10/19 03:07:51;;;;;;;;;14.00;13.00;;;;;16.87;72.26;101204.97;5057381;28;50972;-60
2021/10/19 03:10:16;;;;;;;;;15.50;13.00;;;;;16.87;72.21;101212.94;5057038;28;64527;-60
2021/10/19 03:12:42;;;;;;;;;11.75;11.75;;;;;16.87;72.32;101212.94;5057501;28;46013;-61
2021/10/19 03:15:07;;;;;;;;;13.75;11.75;;;;;16.87;72.18;101212.94;5057606;28;45370;-60
2021/10/19 03:17:33;;;;;;;;;13.50;12.50;;;;;16.87;72.25;101212.94;5057531;28;45767;-61
2021/10/19 03:19:58;;;;;;;;;15.00;11.75;;;;;16.86;71.94;101222.72;5057274;28;54674;-60
2021/10/19 03:22:24;;;;;;;;;14.00;11.50;;;;;16.86;72.17;101217.41;5057072;28;45561;-60
2021/10/19 03:24:49;;;;;;;;;14.25;10.75;;;;;16.86;72.16;101219.25;5057045;28;45262;-60
2021/10/19 03:27:14;;;;;;;;;11.75;10.50;;;;;16.85;72.36;101226.34;5057604;28;45570;-60
2021/10/19 03:29:41;;;;;;;;;13.00;11.50;;;;;16.85;72.29;101225.53;5057529;28;45214;-60
2021/10/19 03:32:06;;;;;;;;;11.75;11.75;;;;;16.85;72.21;101225.53;5057283;28;45386;-60
2021/10/19 03:34:31;;;;;;;;;11.00;11.00;;;;;16.83;72.28;101220.38;5055038;28;71585;-61
2021/10/19 03:36:57;;;;;;;;;13.00;13.00;;;;;16.83;72.22;101222.22;5056003;28;66607;-60
2021/10/19 03:39:22;;;;;;;;;14.00;12.25;;;;;16.84;72.20;101219.38;5057336;28;45319;-60
2021/10/19 03:41:48;;;;;;;;;14.50;11.00;;;;;16.83;72.42;101225.69;5056885;28;45315;-60
2021/10/19 03:44:13;;;;;;;;;16.50;13.00;;;;;16.82;72.21;101232.00;5056232;28;64775;-61
2021/10/19 03:46:38;;;;;;;;;15.75;12.75;;;;;16.83;72.18;101227.53;5056354;28;68487;-60
2021/10/19 03:49:04;;;;;;;;;14.75;12.25;;;;;16.83;72.19;101222.22;5056999;28;45323;-61
2021/10/19 03:51:29;;;;;;;;;17.00;13.25;;;;;16.83;72.14;101232.84;5056806;28;45449;-61
2021/10/19 03:53:55;;;;;;;;;14.50;13.00;;;;;16.82;72.07;101225.88;5055585;28;48995;-60
2021/10/19 03:56:20;;;;;;;;;13.00;12.00;;;;;16.81;72.24;101225.00;5056428;28;62540;-61
2021/10/19 03:58:45;;;;;;;;;11.75;11.25;;;;;16.81;72.10;101232.16;5055702;28;45524;-60
2021/10/19 04:01:11;;;;;;;;;13.50;13.50;;;;;16.82;72.05;101231.16;5056365;28;59926;-60
2021/10/19 04:03:36;;;;;;;;;18.50;12.75;;;;;16.81;72.10;101245.44;5056229;28;59812;-60
2021/10/19 04:06:02;;;;;;;;;12.50;12.25;;;;;16.81;72.05;101235.63;5055942;28;65656;-60
2021/10/19 04:08:27;;;;;;;;;14.25;13.50;;;;;16.80;72.23;101238.47;5057000;28;45582;-60
2021/10/19 04:10:52;;;;;;;;;12.50;11.25;;;;;16.78;72.18;101241.25;5055743;28;73103;-61
2021/10/19 04:13:18;;;;;;;;;15.50;12.75;;;;;16.79;72.09;101255.38;5056564;28;45253;-60
2021/10/19 04:15:43;;;;;;;;;13.75;13.75;;;;;16.77;71.90;101250.22;5055960;28;60518;-61
2021/10/19 04:18:08;;;;;;;;;13.50;11.25;;;;;16.75;72.14;101258.34;5055642;28;65685;-60
2021/10/19 04:20:34;;;;;;;;;17.00;14.00;;;;;16.73;72.14;101255.00;5055764;28;63816;-61
2021/10/19 04:22:59;;;;;;;;;11.00;11.00;;;;;16.73;72.17;101255.00;5055082;28;68050;-60
2021/10/19 04:25:24;;;;;;;;;12.00;12.00;;;;;16.73;72.06;101259.47;5055508;28;66355;-61
2021/10/19 04:27:50;;;;;;;;;16.00;13.25;;;;;16.71;72.14;101257.00;5055732;28;64370;-60
2021/10/19 04:30:15;;;;;;;;;16.50;11.75;;;;;16.71;71.97;101264.97;5056371;28;45345;-61
2021/10/19 04:32:41;;;;;;;;;17.00;14.25;;;;;16.71;72.09;101272.06;5056089;28;46201;-61
2021/10/19 04:35:06;;;;;;;;;13.25;12.25;;;;;16.69;72.13;101268.78;5055501;28;45967;-60
2021/10/19 04:37:32;;;;;;;;;12.75;12.25;;;;;16.68;72.04;101272.41;5055720;28;45788;-61
2021/10/19 04:39:58;;;;;;;;;17.75;15.25;;;;;16.67;72.16;101260.13;5056199;28;45472;-61
2021/10/19 04:42:24;;;;;;;;;13.75;13.25;;;;;16.65;72.21;101254.16;5055240;28;71349;-60
2021/10/19 04:44:49;;;;;;;;;15.25;12.50;;;;;16.64;71.90;101263.94;5056519;28;45375;-60
2021/10/19 04:47:15;;;;;;;;;12.50;12.00;;;;;16.61;72.34;101257.13;5055945;28;45331;-60
2021/10/19 04:49:41;;;;;;;;;14.75;12.50;;;;;16.60;72.18;101265.22;5055686;28;46503;-60
2021/10/19 04:52:06;;;;;;;;;15.00;12.00;;;;;16.59;72.35;101264.41;5054941;28;70302;-60
2021/10/19 04:54:31;;;;;;;;;15.00;13.00;;;;;16.59;72.18;101274.16;5056134;28;45394;-60
2021/10/19 04:56:57;;;;;;;;;17.75;12.75;;;;;16.57;72.46;101262.88;5055336;28;59013;-60
2021/10/19 04:59:22;;;;;;;;;17.50;16.00;;;;;16.56;72.16;101267.38;5055072;28;73623;-60
2021/10/19 05:01:47;;;;;;;;;16.25;12.75;;;;;16.55;72.27;101265.72;5055101;28;72310;-60
2021/10/19 05:04:15;;;;;;;;;16.75;14.75;;;;;16.54;72.17;101255.25;5055300;28;63102;-60
2021/10/19 05:06:41;;;;;;;;;14.50;13.00;;;;;16.53;72.10;101259.72;5054879;28;45240;-60
2021/10/19 05:09:07;;;;;;;;;15.50;14.25;;;;;16.52;72.38;101271.34;5056006;28;46666;-60
2021/10/19 05:11:32;;;;;;;;;14.25;14.25;;;;;16.53;72.11;101259.72;5054898;28;69548;-60
2021/10/19 05:13:57;;;;;;;;;16.75;14.00;;;;;16.51;72.21;101268.81;5054954;28;65576;-60
2021/10/19 05:16:23;;;;;;;;;15.50;13.00;;;;;16.49;72.32;101270.78;5055895;28;45347;-60
2021/10/19 05:18:48;;;;;;;;;16.25;13.25;;;;;16.47;72.35;101260.34;5055602;28;45396;-60
2021/10/19 05:21:14;;;;;;;;;19.25;14.50;;;;;16.46;72.53;101259.50;5054864;28;66496;-60
2021/10/19 05:23:39;;;;;;;;;16.25;14.25;;;;;16.44;72.45;101250.06;5054714;28;64482;-60
2021/10/19 05:26:04;;;;;;;;;15.75;14.25;;;;;16.43;72.52;101251.88;5055784;28;45504;-60
2021/10/19 05:28:32;;;;;;;;;17.25;15.25;;;;;16.43;72.54;101248.41;5054622;28;45344;-60
2021/10/19 05:30:58;;;;;;;;;22.00;15.50;;;;;16.43;72.38;101253.69;5055473;28;45322;-60
2021/10/19 05:33:24;;;;;;;;;16.00;13.50;;;;;16.41;72.46;101256.53;5055454;28;45567;-61
2021/10/19 05:35:49;;;;;;;;;14.25;13.50;;;;;16.42;72.49;101257.34;5055360;28;45470;-60
2021/10/19 05:38:15;;;;;;;;;15.25;13.25;;;;;16.41;72.65;101256.53;5055289;28;45242;-60
2021/10/19 05:40:40;;;;;;;;;14.75;14.75;;;;;16.42;72.49;101255.53;5054738;28;59244;-60
2021/10/19 05:43:05;;;;;;;;;15.50;15.50;;;;;16.41;72.50;101247.72;5054690;28;66806;-60
2021/10/19 05:45:31;;;;;;;;;20.00;16.00;;;;;16.40;72.54;101246.91;5054737;28;68025;-61
2021/10/19 05:47:56;;;;;;;;;15.50;15.50;;;;;16.41;72.42;101242.41;5054245;28;73136;-60
2021/10/19 05:50:21;;;;;;;;;18.00;15.50;;;;;16.40;72.47;101244.25;5055317;28;45363;-60
2021/10/19 05:52:47;;;;;;;;;15.00;14.00;;;;;16.42;72.14;101238.78;5053631;28;52917;-60
2021/10/19 05:55:12;;;;;;;;;16.50;15.25;;;;;16.42;72.30;101247.59;5054968;28;52040;-60
2021/10/19 05:57:40;;;;;;;;;19.50;15.25;;;;;16.42;72.15;101230.81;5054963;28;46448;-61
2021/10/19 06:00:07;;;;;;;;;17.50;12.25;;;;;16.41;72.23;101245.91;5056067;28;45860;-60
2021/10/19 06:02:32;;;;;;;;;16.25;16.25;;;;;16.42;72.13;101239.63;5058767;28;45314;-60
2021/10/19 06:04:58;;;;;;;;;14.25;11.25;;;;;16.42;72.05;101252.88;5058510;28;45552;-60
2021/10/19 06:07:23;;;;;;;;;20.00;15.50;;;;;16.41;71.98;101245.91;5057469;28;68192;-61
2021/10/19 06:09:48;;;;;;;;;20.50;15.25;;;;;16.41;71.98;101245.91;5057668;28;65178;-60
2021/10/19 06:12:14;;;;;;;;;16.25;15.25;;;;;16.41;71.99;101251.22;5056260;28;66995;-61
2021/10/19 06:14:39;;;;;;;;;15.75;14.25;;;;;16.41;72.00;101251.22;5057796;28;61824;-60
2021/10/19 06:17:04;;;;;;;;;18.00;14.50;;;;;16.41;72.10;101253.03;5056950;28;74920;-60
2021/10/19 06:19:30;;;;;;;;;16.50;14.25;;;;;16.39;71.91;101249.69;5039016;28;70938;-61
2021/10/19 06:21:55;;;;;;;;;18.75;13.00;;;;;16.38;71.98;101254.19;5057373;28;56020;-61
2021/10/19 06:24:21;;;;;;;;;20.25;16.25;;;;;16.38;71.62;101261.28;5057638;28;59560;-61
2021/10/19 06:26:46;;;;;;;;;17.25;15.00;;;;;16.36;71.75;101263.28;5058323;28;45242;-60
2021/10/19 06:29:12;;;;;;;;;13.50;13.25;;;;;16.34;71.71;101267.91;5057073;28;68929;-59
2021/10/19 06:31:37;;;;;;;;;14.50;13.25;;;;;16.32;71.80;101263.56;5057888;28;45352;-60
2021/10/19 06:34:03;;;;;;;;;15.25;15.00;;;;;16.32;71.65;101260.13;5057671;28;45355;-60
2021/10/19 06:36:28;;;;;;;;;18.75;15.00;;;;;16.29;71.80;101263.06;5056712;28;45397;-61
2021/10/19 06:38:54;;;;;;;;;18.00;16.00;;;;;16.27;71.66;101259.75;5057884;28;45330;-60
2021/10/19 06:41:19;;;;;;;;;16.00;16.00;;;;;16.25;71.89;101256.41;5058009;28;45368;-60
2021/10/19 06:43:45;;;;;;;;;17.50;16.25;;;;;16.25;71.87;101262.53;5057971;28;45513;-61
2021/10/19 06:46:10;;;;;;;;;12.50;12.00;;;;;16.24;72.03;101257.41;5057743;28;45541;-60
2021/10/19 06:48:36;;;;;;;;;20.75;15.25;;;;;16.23;71.68;101261.84;5057914;28;45326;-61
2021/10/19 06:51:02;;;;;;;;;18.75;18.75;;;;;16.23;71.74;101275.13;5056960;28;54844;-60
2021/10/19 06:53:27;;;;;;;;;18.75;15.50;;;;;16.22;71.81;101262.03;5056574;28;45191;-60
2021/10/19 06:55:53;;;;;;;;;17.75;15.00;;;;;16.21;71.89;101261.19;5057605;28;46503;-60
2021/10/19 06:58:18;;;;;;;;;15.25;14.75;;;;;16.22;71.75;101270.81;5056993;28;65188;-61
2021/10/19 07:00:43;;;;;;;;;17.00;16.25;;;;;16.22;71.69;101277.94;5057490;28;50028;-60
2021/10/19 07:03:09;;;;;;;;;12.00;11.00;;;;;16.22;71.83;101272.63;5056364;28;45495;-60
2021/10/19 07:05:34;;;;;;;;;14.50;13.75;;;;;16.23;71.77;101279.59;5057036;28;45274;-61
2021/10/19 07:08:00;;;;;;;;;18.25;18.25;;;;;16.24;72.00;101275.97;5056096;28;72947;-61
2021/10/19 07:10:25;;;;;;;;;16.75;15.75;;;;;16.24;71.92;101268.81;5055654;28;45344;-61
2021/10/19 07:12:51;;;;;;;;;15.00;13.75;;;;;16.26;71.59;101280.09;5056939;28;45233;-61
2021/10/19 07:15:16;;;;;;;;;16.25;14.50;;;;;16.27;71.78;101280.97;5056641;28;71091;-60
2021/10/19 07:17:42;;;;;;;;;15.50;13.75;;;;;16.29;71.63;101278.97;5057380;28;45407;-60
2021/10/19 07:20:08;;;;;;;;;18.50;17.50;;;;;16.29;71.53;101284.28;5057528;28;46051;-61
2021/10/19 07:22:34;;;;;;;;;14.75;14.25;;;;;16.31;71.58;101280.47;5057257;28;45489;-60
2021/10/19 07:25:00;;;;;;;;;16.25;15.25;;;;;16.32;71.77;101281.31;5057218;28;46364;-61
2021/10/19 07:27:26;;;;;;;;;14.25;13.25;;;;;16.35;71.84;101281.00;5057410;28;45265;-61
2021/10/19 07:29:51;;;;;;;;;18.75;15.50;;;;;16.37;71.74;101284.34;5057358;28;45430;-61
2021/10/19 07:32:17;;;;;;;;;17.25;14.75;;;;;16.38;71.60;101288.66;5056541;28;60589;-61
2021/10/19 07:34:42;;;;;;;;;17.00;12.50;;;;;16.40;71.47;101293.78;5065869;27;66708;-61
2021/10/19 07:37:07;;;;;;;;;18.75;13.50;;;;;16.41;71.79;101288.34;5075940;28;45504;-61
2021/10/19 07:39:33;;;;;;;;;17.75;14.00;;;;;16.43;71.59;101291.66;5075585;28;61556;-61
2021/10/19 07:41:58;;;;;;;;;14.75;12.25;;;;;16.46;71.57;101293.19;5075800;28;49688;-61
2021/10/19 07:44:24;;;;;;;;;15.00;13.25;;;;;16.49;71.56;101294.66;5075238;28;66150;-61
2021/10/19 07:46:52;;;;;;;;;16.25;16.00;;;;;16.51;71.46;101290.03;5075227;28;45368;-61
2021/10/19 07:49:18;;;;;;;;;18.50;13.75;;;;;16.54;71.72;101292.38;5076480;28;45328;-61
2021/10/19 07:51:44;;;;;;;;;16.00;15.25;;;;;16.57;71.77;101286.75;5075026;27;45480;-61
2021/10/19 07:54:09;;;;;;;;;14.00;11.75;;;;;16.60;71.40;101287.31;5071158;28;46663;-61
2021/10/19 07:56:35;;;;;;;;;18.00;15.25;;;;;16.64;71.62;101287.81;5071771;27;65294;-61
2021/10/19 07:59:05;;;;;;;;;18.25;14.00;;;;;16.68;71.45;101281.19;5073965;27;45417;-61
2021/10/19 08:01:30;;;;;;;;;20.50;14.75;;;;;16.73;71.45;101286.84;5074069;28;45252;-61
2021/10/19 08:03:55;;;;;;;;;15.75;14.00;;;;;16.81;71.24;101293.19;5072203;27;66950;-61
2021/10/19 08:06:21;;;;;;;;;16.75;14.50;;;;;16.89;71.30;101286.09;5072580;27;64929;-61
2021/10/19 08:08:46;;;;;;;;;17.75;15.00;;;;;17.01;71.17;101284.00;5073863;27;45390;-61
2021/10/19 08:11:12;;;;;;;;;20.00;15.25;;;;;17.15;70.91;101285.25;5073498;28;45481;-61
2021/10/19 08:13:37;;;;;;;;;13.25;12.25;;;;;17.33;70.56;101290.44;5073968;27;46213;-61
2021/10/19 08:16:03;;;;;;;;;18.00;14.25;;;;;17.53;70.00;101284.81;5072285;27;68976;-61
2021/10/19 08:18:28;;;;;;;;;7.25;7.25;;;;;17.74;69.77;101297.66;5073649;28;45591;-61
2021/10/19 08:20:54;;;;;;;;;19.00;16.25;;;;;17.98;69.30;101292.50;5073662;28;45470;-61
2021/10/19 08:23:20;;;;;;;;;13.00;12.25;;;;;18.21;68.32;101300.66;5068989;28;68756;-61
2021/10/19 08:25:46;;;;;;;;;14.50;13.50;;;;;18.41;67.98;101301.13;5073185;28;45498;-61
2021/10/19 08:28:18;;;;;;;;;13.50;13.25;;;;;18.64;67.07;101303.06;5071246;27;57126;-61
2021/10/19 08:30:43;;;;;;;;;11.25;11.25;;;;;18.83;65.98;101302.69;5072877;28;45450;-62
2021/10/19 08:33:09;;;;;;;;;18.25;16.75;;;;;19.03;65.52;101312.97;5073305;28;50094;-61
2021/10/19 08:35:34;;;;;;;;;17.50;15.00;;;;;19.22;65.11;101313.53;5072494;28;65668;-62
2021/10/19 08:38:01;;;;;;;;;17.25;16.25;;;;;19.41;64.96;101315.75;5072369;28;45440;-62
2021/10/19 08:40:26;;;;;;;;;13.00;12.50;;;;;19.63;64.14;101320.47;5072903;28;45418;-62
2021/10/19 08:42:52;;;;;;;;;15.50;13.00;;;;;19.85;63.71;101319.63;5072075;28;73576;-62
2021/10/19 08:45:17;;;;;;;;;18.50;14.50;;;;;20.05;62.91;101323.69;5073777;28;45491;-62
2021/10/19 08:47:44;;;;;;;;;30.75;30.25;;;;;20.24;63.01;101323.16;5073294;28;45444;-62
2021/10/19 08:50:10;;;;;;;;;20.25;16.50;;;;;20.45;62.39;101335.81;5072210;27;46064;-62
2021/10/19 08:52:36;;;;;;;;;16.25;13.50;;;;;20.63;61.69;101331.16;5073453;28;46153;-61
2021/10/19 08:55:01;;;;;;;;;20.25;15.25;;;;;20.82;61.13;101325.25;5073221;27;45251;-62
2021/10/19 08:57:27;;;;;;;;;17.50;13.00;;;;;21.02;60.82;101324.72;5072538;28;45268;-62
2021/10/19 08:59:54;;;;;;;;;15.75;15.25;;;;;21.20;60.05;101319.78;5072606;27;65764;-61
2021/10/19 09:02:19;;;;;;;;;13.50;13.00;;;;;21.39;59.51;101314.03;5073268;27;45737;-62
2021/10/19 09:04:45;;;;;;;;;16.25;13.00;;;;;21.55;58.66;101312.97;5070454;28;65066;-62
2021/10/19 09:07:10;;;;;;;;;12.50;12.00;;;;;21.70;57.98;101319.13;5073224;28;45559;-62
2021/10/19 09:09:36;;;;;;;;;13.25;12.00;;;;;21.83;57.44;101314.91;5072536;28;45448;-62
2021/10/19 09:12:01;;;;;;;;;12.00;10.50;;;;;21.96;57.25;101315.03;5073589;27;45473;-62
2021/10/19 09:14:37;;;;;;;;;13.00;12.00;;;;;22.11;55.95;101316.78;5073255;28;45533;-62
2021/10/19 09:17:04;;;;;;;;;13.75;11.00;;;;;22.25;56.40;101307.84;5071056;28;45493;-62
2021/10/19 09:19:29;;;;;;;;;11.50;11.50;;;;;22.38;55.70;101305.25;5072117;28;45475;-62
2021/10/19 09:21:56;;;;;;;;;15.75;13.75;;;;;22.53;55.39;101305.16;5073146;28;46332;-62
2021/10/19 09:24:27;;;;;;;;;10.50;10.50;;;;;22.70;55.07;101309.38;5072891;28;46026;-62
2021/10/19 09:26:54;;;;;;;;;10.75;10.75;;;;;22.85;55.18;101310.06;5070746;28;45293;-63
2021/10/19 09:29:19;;;;;;;;;12.75;11.50;;;;;22.96;54.22;101311.38;5072295;27;45627;-62
2021/10/19 09:31:45;;;;;;;;;15.50;12.75;;;;;23.07;53.95;101304.59;5072743;28;45498;-61
2021/10/19 09:34:14;;;;;;;;;13.00;12.25;;;;;23.16;52.86;101308.75;5074050;27;45315;-62
2021/10/19 09:36:40;;;;;;;;;12.00;11.50;;;;;23.26;52.42;101311.06;5076566;28;45512;-62
2021/10/19 09:39:05;;;;;;;;;10.25;10.00;;;;;23.34;52.49;101305.53;5076617;28;45491;-62
2021/10/19 09:41:41;;;;;;;;;12.00;12.00;;;;;23.47;52.41;101315.47;5076631;28;46058;-62
2021/10/19 09:44:11;;;;;;;;;12.25;10.00;;;;;23.59;51.99;101306.81;5075265;27;45550;-62
2021/10/19 09:46:36;;;;;;;;;12.00;10.50;;;;;23.72;51.77;101314.88;5075757;28;45467;-62
2021/10/19 09:49:02;;;;;;;;;14.75;13.50;;;;;23.84;51.16;101310.56;5074675;27;58531;-62
2021/10/19 09:51:27;;;;;;;;;15.00;14.00;;;;;23.97;51.11;101322.31;5075187;28;45503;-62
2021/10/19 09:53:53;;;;;;;;;16.25;12.00;;;;;24.07;50.34;101322.78;5057158;28;64435;-62
2021/10/19 09:56:18;;;;;;;;;12.75;11.75;;;;;24.20;50.27;101329.16;5057451;28;45592;-63
2021/10/19 09:58:43;;;;;;;;;15.25;13.25;;;;;24.29;49.14;101319.88;5074130;28;61944;-62
2021/10/19 10:01:11;;;;;;;;;14.25;11.50;;;;;24.35;49.57;101319.03;5075326;27;66598;-62
2021/10/19 10:03:36;;;;;;;;;15.00;11.50;;;;;24.46;49.29;101317.56;5076296;28;45488;-62
2021/10/19 10:06:02;;;;;;;;;11.50;10.75;;;;;24.56;48.13;101319.81;5073008;27;51662;-62
2021/10/19 10:08:27;;;;;;;;;13.25;12.50;;;;;24.65;48.08;101318.53;5073150;28;51035;-62
2021/10/19 10:10:56;;;;;;;;;12.50;12.50;;;;;24.74;47.60;101320.00;5075190;28;67651;-62
2021/10/19 10:13:22;;;;;;;;;19.50;17.50;;;;;24.82;47.17;101318.13;5073391;28;46099;-63
2021/10/19 10:15:48;;;;;;;;;13.25;11.50;;;;;24.86;47.66;101332.78;5075716;27;45422;-62
2021/10/19 10:18:13;;;;;;;;;12.50;12.00;;;;;24.92;47.05;101323.03;5076027;28;45732;-63
2021/10/19 10:20:40;;;;;;;;;12.75;11.00;;;;;25.01;46.99;101309.13;5074486;27;45948;-62
2021/10/19 10:23:21;;;;;;;;;12.00;11.00;;;;;25.13;46.00;101306.63;5074485;27;46026;-62
2021/10/19 10:25:49;;;;;;;;;13.00;10.00;;;;;25.23;46.00;101316.06;5075593;28;45469;-63
2021/10/19 10:28:25;;;;;;;;;13.75;11.75;;;;;25.31;45.89;101319.34;5069890;28;45699;-63
2021/10/19 10:30:50;;;;;;;;;11.00;10.50;;;;;25.39;46.26;101309.38;5074610;28;45636;-62
2021/10/19 10:33:15;;;;;;;;;15.00;12.50;;;;;25.46;46.45;101313.69;5067224;27;51834;-63
2021/10/19 10:35:42;;;;;;;;;17.75;16.25;;;;;25.53;45.85;101304.75;5075490;28;45763;-62
2021/10/19 10:38:08;;;;;;;;;15.75;14.75;;;;;25.60;45.23;101309.03;5071927;28;45612;-62
2021/10/19 10:40:35;;;;;;;;;19.00;15.50;;;;;25.67;45.22;101305.47;5074599;28;74759;-63
2021/10/19 10:43:15;;;;;;;;;15.25;12.25;;;;;25.75;44.76;101302.53;5075222;28;45845;-62
2021/10/19 10:45:41;;;;;;;;;14.25;14.25;;;;;25.85;44.45;101296.63;5074128;28;45516;-63
2021/10/19 10:48:06;;;;;;;;;16.00;12.50;;;;;25.92;44.09;101289.34;5073854;27;55196;-63
2021/10/19 10:50:36;;;;;;;;;16.00;14.00;;;;;25.99;44.56;101290.09;5074016;28;67146;-62
2021/10/19 10:53:11;;;;;;;;;17.25;15.00;;;;;26.07;43.91;101289.81;5074891;28;50696;-62
2021/10/19 10:55:52;;;;;;;;;13.25;12.25;;;;;26.15;44.45;101288.75;5074831;28;45401;-63
2021/10/19 10:58:35;;;;;;;;;13.75;12.25;;;;;26.27;44.00;101279.94;5073214;28;45525;-62
2021/10/19 11:01:13;;;;;;;;;15.50;13.25;;;;;26.35;43.73;101277.75;5074234;28;46525;-63
2021/10/19 11:03:38;;;;;;;;;15.25;12.25;;;;;26.44;43.26;101281.00;5070945;28;45958;-61